createdAt,value
2022-08-18T00:02:19.488Z,39.82
2022-08-18T00:04:48.969Z,39.38
2022-08-18T00:07:31.673Z,39.77
2022-08-18T00:10:00.744Z,39.82
2022-08-18T00:12:38.061Z,39.37
2022-08-18T00:15:10.362Z,39.70
2022-08-18T00:17:38.286Z,39.66
2022-08-18T00:20:11.793Z,39.71
2022-08-18T00:22:42.381Z,39.75
2022-08-18T00:25:11.777Z,40.07
2022-08-18T00:27:41.315Z,40.25
2022-08-18T00:30:19.253Z,39.98
2022-08-18T00:32:55.454Z,40.69
2022-08-18T00:35:36.467Z,40.50
2022-08-18T00:38:07.762Z,40.47
2022-08-18T00:40:46.395Z,40.15
2022-08-18T00:43:22.922Z,40.61
2022-08-18T00:45:50.122Z,40.25
2022-08-18T00:48:17.076Z,40.24
2022-08-18T00:50:54.762Z,40.79
2022-08-18T00:53:49.834Z,41.18
2022-08-18T00:56:29.201Z,41.39
2022-08-18T00:59:07.182Z,41.32
2022-08-18T01:01:38.049Z,41.35
2022-08-18T01:04:42.450Z,41.32
2022-08-18T01:07:20.446Z,41.59
2022-08-18T01:09:52.217Z,41.79
2022-08-18T01:12:44.895Z,41.64
2022-08-18T01:15:08.486Z,41.94
2022-08-18T01:18:14.510Z,41.26
2022-08-18T01:21:16.524Z,41.99
2022-08-18T01:23:45.377Z,42.09
2022-08-18T01:26:13.973Z,42.08
2022-08-18T01:28:45.018Z,42.07
2022-08-18T01:31:30.513Z,42.21
2022-08-18T01:33:57.781Z,41.99
2022-08-18T01:36:25.189Z,41.83
2022-08-18T01:38:53.664Z,42.22
2022-08-18T01:41:29.531Z,42.47
2022-08-18T01:44:02.897Z,42.40
2022-08-18T01:46:33.759Z,42.36
2022-08-18T01:49:03.647Z,42.22
2022-08-18T01:51:38.795Z,42.44
2022-08-18T01:54:13.722Z,42.83
2022-08-18T01:56:43.274Z,42.63
2022-08-18T01:59:14.030Z,42.73
2022-08-18T02:01:48.168Z,42.63
2022-08-18T02:04:36.547Z,42.63
2022-08-18T02:07:08.703Z,42.81
2022-08-18T02:09:38.660Z,42.66
2022-08-18T02:12:07.641Z,42.64
2022-08-18T02:14:36.220Z,42.90
2022-08-18T02:17:07.233Z,43.09
2022-08-18T02:19:38.403Z,43.26
2022-08-18T02:22:08.268Z,43.17
2022-08-18T02:24:36.167Z,43.54
2022-08-18T02:27:03.671Z,43.27
2022-08-18T02:29:31.399Z,43.24
2022-08-18T02:31:58.425Z,42.96
2022-08-18T02:34:26.242Z,43.18
2022-08-18T02:36:53.632Z,43.24
2022-08-18T02:39:21.408Z,43.13
2022-08-18T02:41:48.607Z,43.08
2022-08-18T02:44:15.617Z,43.21
2022-08-18T02:46:43.380Z,43.54
2022-08-18T02:49:10.757Z,43.25
2022-08-18T02:51:38.831Z,43.77
2022-08-18T02:54:11.453Z,43.42
2022-08-18T02:56:42.402Z,43.54
2022-08-18T02:59:14.250Z,43.69
2022-08-18T03:01:46.474Z,43.88
2022-08-18T03:04:21.141Z,43.53
2022-08-18T03:06:50.345Z,43.46
2022-08-18T03:09:18.872Z,43.70
2022-08-18T03:11:46.889Z,43.55
2022-08-18T03:14:15.909Z,43.94
2022-08-18T03:16:53.991Z,43.80
2022-08-18T03:19:30.054Z,44.17
2022-08-18T03:22:02.933Z,43.74
2022-08-18T03:24:32.358Z,43.78
2022-08-18T03:27:01.617Z,43.83
2022-08-18T03:29:32.455Z,44.02
2022-08-18T03:32:02.185Z,43.86
2022-08-18T03:34:30.306Z,44.45
2022-08-18T03:36:57.556Z,44.07
2022-08-18T03:39:25.115Z,43.84
2022-08-18T03:41:59.809Z,44.09
2022-08-18T03:44:36.948Z,44.27
2022-08-18T03:47:09.577Z,44.72
2022-08-18T03:49:37.974Z,44.27
2022-08-18T03:52:09.620Z,44.73
2022-08-18T03:54:39.091Z,45.02
2022-08-18T03:57:10.601Z,44.64
2022-08-18T03:59:41.452Z,45.12
2022-08-18T04:02:09.006Z,44.89
2022-08-18T04:04:36.777Z,45.31
2022-08-18T04:07:14.257Z,45.15
2022-08-18T04:09:42.086Z,45.63
2022-08-18T04:12:16.328Z,45.62
2022-08-18T04:14:48.849Z,45.35
2022-08-18T04:17:24.823Z,45.60
2022-08-18T04:19:56.229Z,45.62
2022-08-18T04:22:25.209Z,46.04
2022-08-18T04:24:53.603Z,46.18
2022-08-18T04:27:22.149Z,46.02
2022-08-18T04:29:49.720Z,46.25
2022-08-18T04:32:17.225Z,45.90
2022-08-18T04:34:44.450Z,46.45
2022-08-18T04:37:12.373Z,46.24
2022-08-18T04:39:39.714Z,46.58
2022-08-18T04:42:07.497Z,46.73
2022-08-18T04:44:40.173Z,46.71
2022-08-18T04:47:09.130Z,46.63
2022-08-18T04:49:37.489Z,46.45
2022-08-18T04:52:39.658Z,46.40
2022-08-18T04:55:10.187Z,46.64
2022-08-18T04:57:37.604Z,46.60
2022-08-18T05:00:08.288Z,46.93
2022-08-18T05:02:36.007Z,46.90
2022-08-18T05:05:04.510Z,46.38
2022-08-18T05:07:32.212Z,46.50
2022-08-18T05:09:59.666Z,46.89
2022-08-18T05:12:27.014Z,46.63
2022-08-18T05:14:57.285Z,46.49
2022-08-18T05:17:30.440Z,46.50
2022-08-18T05:20:01.431Z,46.39
2022-08-18T05:22:31.585Z,46.56
2022-08-18T05:25:00.595Z,46.39
2022-08-18T05:27:33.561Z,46.64
2022-08-18T05:30:00.970Z,46.29
2022-08-18T05:32:47.589Z,46.46
2022-08-18T05:35:32.416Z,46.38
2022-08-18T05:38:43.659Z,46.60
2022-08-18T05:41:35.307Z,45.93
2022-08-18T05:44:04.654Z,46.67
2022-08-18T05:46:55.554Z,46.84
2022-08-18T05:49:26.640Z,46.96
2022-08-18T05:52:00.337Z,46.92
2022-08-18T05:54:57.400Z,46.99
2022-08-18T05:57:28.430Z,46.56
2022-08-18T05:59:56.091Z,46.49
2022-08-18T06:02:46.194Z,46.87
2022-08-18T06:05:27.353Z,46.67
2022-08-18T06:08:03.036Z,46.85
2022-08-18T06:10:31.289Z,46.88
2022-08-18T06:13:01.772Z,46.71
2022-08-18T06:16:10.569Z,46.93
2022-08-18T06:18:50.736Z,47.08
2022-08-18T06:21:44.048Z,46.82
2022-08-18T06:24:45.964Z,46.91
2022-08-18T06:27:40.323Z,46.70
2022-08-18T06:30:32.685Z,46.82
2022-08-18T06:33:46.115Z,46.38
2022-08-18T06:36:33.222Z,47.01
2022-08-18T06:39:23.981Z,46.94
2022-08-18T06:41:53.636Z,46.90
2022-08-18T06:44:38.282Z,46.46
2022-08-18T06:47:41.077Z,46.60
2022-08-18T06:50:20.946Z,46.69
2022-08-18T06:53:07.945Z,46.50
2022-08-18T06:55:55.266Z,46.31
2022-08-18T06:58:30.592Z,46.54
2022-08-18T07:01:06.794Z,46.17
2022-08-18T07:03:36.920Z,46.26
2022-08-18T07:06:05.903Z,46.09
2022-08-18T07:08:43.500Z,46.08
2022-08-18T07:11:34.272Z,46.07
2022-08-18T07:14:21.860Z,45.84
2022-08-18T07:16:59.299Z,45.53
2022-08-18T07:19:31.251Z,45.63
2022-08-18T07:22:17.010Z,45.28
2022-08-18T07:24:50.839Z,45.64
2022-08-18T07:27:41.072Z,45.26
2022-08-18T07:30:30.726Z,44.67
2022-08-18T07:33:24.181Z,44.42
2022-08-18T07:35:57.140Z,44.33
2022-08-18T07:38:57.146Z,44.43
2022-08-18T07:41:43.945Z,43.99
2022-08-18T07:44:28.263Z,43.79
2022-08-18T07:47:03.845Z,43.60
2022-08-18T07:49:46.069Z,43.75
2022-08-18T07:52:46.906Z,43.66
2022-08-18T07:55:30.598Z,43.66
2022-08-18T07:58:40.188Z,43.35
2022-08-18T08:01:33.533Z,43.29
2022-08-18T08:04:26.272Z,42.96
2022-08-18T08:07:24.878Z,43.28
2022-08-18T08:10:13.461Z,42.68
2022-08-18T08:13:06.126Z,42.53
2022-08-18T08:15:54.536Z,41.99
2022-08-18T08:18:28.810Z,42.19
2022-08-18T08:21:01.943Z,41.88
2022-08-18T08:24:01.093Z,41.92
2022-08-18T08:26:54.144Z,41.14
2022-08-18T08:29:48.685Z,40.82
2022-08-18T08:32:35.207Z,41.11
2022-08-18T08:35:48.889Z,40.89
2022-08-18T08:38:48.359Z,40.96
2022-08-18T08:41:53.650Z,40.35
2022-08-18T08:45:23.446Z,40.22
2022-08-18T08:48:09.034Z,39.56
2022-08-18T08:51:00.356Z,39.74
2022-08-18T08:53:54.283Z,39.13
2022-08-18T08:56:31.274Z,38.95
2022-08-18T08:59:10.447Z,39.40
2022-08-18T09:01:56.568Z,39.17
2022-08-18T09:04:54.741Z,39.32
2022-08-18T09:08:15.916Z,39.07
2022-08-18T09:11:19.338Z,38.34
2022-08-18T09:14:25.515Z,38.47
2022-08-18T09:17:34.564Z,37.81
2022-08-18T09:20:12.426Z,37.97
2022-08-18T09:23:22.159Z,37.93
2022-08-18T09:25:56.477Z,37.19
2022-08-18T09:28:57.702Z,37.02
2022-08-18T09:31:31.645Z,36.78
2022-08-18T09:34:22.354Z,36.84
2022-08-18T09:37:12.313Z,36.00
2022-08-18T09:40:12.656Z,35.88
2022-08-18T09:43:11.462Z,35.55
2022-08-18T09:45:59.584Z,35.24
2022-08-18T09:48:44.057Z,35.46
2022-08-18T09:51:41.221Z,35.58
2022-08-18T09:54:13.625Z,35.33
2022-08-18T09:59:36.828Z,35.53
2022-08-18T10:02:18.826Z,34.72
2022-08-18T10:04:51.468Z,34.84
2022-08-18T10:07:21.440Z,35.32
2022-08-18T10:11:01.118Z,35.52
2022-08-18T10:17:21.499Z,35.10
2022-08-18T10:20:04.822Z,35.24
2022-08-18T10:22:38.606Z,34.88
2022-08-18T10:25:22.739Z,35.07
2022-08-18T10:27:57.260Z,34.30
2022-08-18T10:30:56.614Z,34.60
2022-08-18T10:34:19.363Z,34.62
2022-08-18T10:36:58.860Z,33.98
2022-08-18T10:39:39.789Z,34.59
2022-08-18T10:43:26.956Z,34.26
2022-08-18T10:46:24.359Z,34.19
2022-08-18T10:48:58.765Z,33.94
2022-08-18T10:51:59.260Z,34.31
2022-08-18T10:55:03.063Z,34.05
2022-08-18T10:58:10.656Z,33.79
2022-08-18T11:00:48.429Z,33.56
2022-08-18T11:03:51.412Z,33.93
2022-08-18T11:06:27.245Z,33.60
2022-08-18T11:09:00.902Z,33.58
2022-08-18T11:11:59.787Z,33.89
2022-08-18T11:14:47.143Z,33.24
2022-08-18T11:17:50.658Z,33.14
2022-08-18T11:20:21.062Z,33.06
2022-08-18T11:23:00.421Z,32.99
2022-08-18T11:25:31.248Z,32.95
2022-08-18T11:27:59.754Z,32.68
2022-08-18T11:30:35.182Z,32.59
2022-08-18T11:33:04.313Z,32.78
2022-08-18T11:35:45.694Z,32.40
2022-08-18T11:38:21.079Z,32.29
2022-08-18T11:41:13.024Z,32.39
2022-08-18T11:43:43.149Z,32.32
2022-08-18T11:46:37.860Z,31.82
2022-08-18T11:49:33.818Z,32.26
2022-08-18T11:52:29.393Z,32.14
2022-08-18T11:55:14.555Z,31.70
2022-08-18T11:57:59.117Z,31.61
2022-08-18T12:00:48.817Z,31.52
2022-08-18T12:03:31.779Z,31.68
2022-08-18T12:06:20.218Z,31.37
2022-08-18T12:09:30.589Z,31.32
2022-08-18T12:12:07.241Z,30.80
2022-08-18T12:15:44.299Z,30.88
2022-08-18T12:18:26.101Z,30.35
2022-08-18T12:21:06.069Z,29.97
2022-08-18T12:23:44.403Z,29.64
2022-08-18T12:26:27.262Z,30.14
2022-08-18T12:29:01.174Z,30.26
2022-08-18T12:31:41.963Z,30.24
2022-08-18T12:34:25.125Z,30.33
2022-08-18T12:36:57.959Z,29.49
2022-08-18T12:39:25.524Z,29.60
2022-08-18T12:41:52.625Z,29.63
2022-08-18T12:44:20.623Z,28.14
2022-08-18T12:46:49.293Z,28.06
2022-08-18T12:49:23.987Z,27.90
2022-08-18T12:51:54.588Z,26.22
2022-08-18T12:54:23.265Z,26.18
2022-08-18T12:56:56.139Z,26.35
2022-08-18T12:59:25.756Z,25.16
2022-08-18T13:01:58.585Z,24.54
2022-08-18T13:04:27.806Z,25.23
2022-08-18T13:07:00.097Z,24.07
2022-08-18T13:09:34.208Z,23.61
2022-08-18T13:12:14.951Z,23.62
2022-08-18T13:14:44.499Z,22.86
2022-08-18T13:17:29.696Z,22.87
2022-08-18T13:20:09.253Z,22.99
2022-08-18T13:22:40.598Z,21.92
2022-08-18T13:25:28.818Z,20.84
2022-08-18T13:28:01.741Z,21.40
2022-08-18T13:30:31.226Z,20.54
2022-08-18T13:33:05.274Z,19.98
2022-08-18T13:35:52.309Z,20.48
2022-08-18T13:38:27.382Z,20.09
2022-08-18T13:40:59.181Z,19.37
2022-08-18T13:43:39.384Z,20.34
2022-08-18T13:46:09.290Z,19.78
2022-08-18T13:48:41.564Z,20.27
2022-08-18T13:51:11.815Z,19.99
2022-08-18T13:53:50.948Z,19.50
2022-08-18T13:56:31.167Z,20.21
2022-08-18T13:58:59.129Z,20.19
2022-08-18T14:01:44.973Z,19.87
2022-08-18T14:04:20.526Z,19.98
2022-08-18T14:06:56.009Z,20.01
2022-08-18T14:09:36.527Z,19.70
2022-08-18T14:12:23.222Z,19.80
2022-08-18T14:14:55.074Z,19.27
2022-08-18T14:17:24.513Z,19.63
2022-08-18T14:20:15.012Z,19.37
2022-08-18T14:23:11.518Z,19.20
2022-08-18T14:25:57.411Z,19.52
2022-08-18T14:28:31.644Z,18.88
2022-08-18T14:31:01.988Z,19.02
2022-08-18T14:33:50.846Z,19.44
2022-08-18T14:36:20.470Z,18.56
2022-08-18T14:39:01.310Z,18.97
2022-08-18T14:41:29.347Z,18.92
2022-08-18T14:44:13.261Z,19.08
2022-08-18T14:46:43.358Z,18.97
2022-08-18T14:49:28.123Z,18.98
2022-08-18T14:51:57.821Z,19.00
2022-08-18T14:54:28.302Z,19.06
2022-08-18T14:56:56.204Z,19.50
2022-08-18T14:59:25.012Z,19.88
2022-08-18T15:01:53.402Z,19.72
2022-08-18T15:04:22.933Z,19.85
2022-08-18T15:06:56.826Z,19.92
2022-08-18T15:09:30.140Z,20.06
2022-08-18T15:11:59.488Z,19.76
2022-08-18T15:14:35.337Z,19.56
2022-08-18T15:17:11.739Z,19.60
2022-08-18T15:19:59.555Z,19.65
2022-08-18T15:22:47.780Z,18.98
2022-08-18T15:25:34.048Z,19.20
2022-08-18T15:28:01.433Z,19.14
2022-08-18T15:30:29.273Z,19.65
2022-08-18T15:32:59.002Z,19.67
2022-08-18T15:35:32.057Z,19.41
2022-08-18T15:38:01.000Z,20.04
2022-08-18T15:40:41.200Z,20.71
2022-08-18T15:43:09.795Z,20.37
2022-08-18T15:45:43.410Z,21.32
2022-08-18T15:48:25.603Z,21.74
2022-08-18T15:50:52.805Z,21.68
2022-08-18T15:53:25.494Z,21.76
2022-08-18T15:55:58.151Z,22.08
2022-08-18T15:58:26.834Z,22.28
2022-08-18T16:00:58.900Z,22.56
2022-08-18T16:03:26.403Z,22.66
2022-08-18T16:05:55.529Z,23.46
2022-08-18T16:08:25.401Z,23.95
2022-08-18T16:10:54.364Z,25.54
2022-08-18T16:13:24.547Z,25.88
2022-08-18T16:15:52.266Z,27.03
2022-08-18T16:18:21.091Z,29.84
2022-08-18T16:20:50.641Z,30.89
2022-08-18T16:23:20.373Z,32.30
2022-08-18T16:25:47.386Z,33.50
2022-08-18T16:28:14.554Z,33.34
2022-08-18T16:30:42.133Z,33.74
2022-08-18T16:33:09.479Z,34.96
2022-08-18T16:35:37.533Z,34.17
2022-08-18T16:38:09.457Z,34.55
2022-08-18T16:40:38.232Z,34.18
2022-08-18T16:43:07.413Z,34.03
2022-08-18T16:45:37.703Z,33.49
2022-08-18T16:48:08.331Z,33.63
2022-08-18T16:50:37.722Z,34.35
2022-08-18T16:53:06.004Z,34.97
2022-08-18T16:55:34.191Z,35.50
2022-08-18T16:58:19.769Z,35.80
2022-08-18T17:01:05.144Z,36.38
2022-08-18T17:03:51.193Z,36.69
2022-08-18T17:06:20.181Z,36.61
2022-08-18T17:08:47.355Z,37.32
2022-08-18T17:11:18.880Z,38.81
2022-08-18T17:13:48.789Z,39.02
2022-08-18T17:16:18.096Z,39.22
2022-08-18T17:18:46.276Z,39.17
2022-08-18T17:21:19.436Z,39.88
2022-08-18T17:23:48.288Z,39.87
2022-08-18T17:26:34.920Z,39.52
2022-08-18T17:29:33.320Z,39.79
2022-08-18T17:32:06.258Z,40.23
2022-08-18T17:34:51.879Z,40.19
2022-08-18T17:37:21.793Z,40.41
2022-08-18T17:40:00.735Z,40.82
2022-08-18T17:42:32.393Z,40.52
2022-08-18T17:45:05.984Z,40.80
2022-08-18T17:47:38.701Z,41.02
2022-08-18T17:50:39.372Z,41.12
2022-08-18T17:53:06.945Z,41.24
2022-08-18T17:55:48.001Z,41.52
2022-08-18T17:58:50.616Z,41.46
2022-08-18T18:01:18.258Z,41.54
2022-08-18T18:03:45.636Z,41.73
2022-08-18T18:06:39.269Z,41.96
2022-08-18T18:09:31.096Z,42.78
2022-08-18T18:12:20.393Z,42.69
2022-08-18T18:14:47.350Z,42.54
2022-08-18T18:17:18.724Z,43.09
2022-08-18T18:19:49.892Z,43.32
2022-08-18T18:22:24.965Z,43.54
2022-08-18T18:25:00.069Z,43.51
2022-08-18T18:27:43.734Z,43.43
2022-08-18T18:30:23.907Z,43.59
2022-08-18T18:33:14.255Z,43.43
2022-08-18T18:35:54.906Z,43.81
2022-08-18T18:39:06.476Z,43.85
2022-08-18T18:41:36.914Z,43.82
2022-08-18T18:44:10.859Z,44.08
2022-08-18T18:46:45.898Z,44.34
2022-08-18T18:49:19.419Z,44.70
2022-08-18T18:52:49.859Z,44.16
2022-08-18T18:55:26.041Z,44.46
2022-08-18T18:58:22.734Z,44.66
2022-08-18T19:01:00.275Z,44.27
2022-08-18T19:03:41.863Z,44.73
2022-08-18T19:06:28.538Z,44.56
2022-08-18T19:09:39.408Z,44.45
2022-08-18T19:12:20.938Z,44.50
2022-08-18T19:15:00.185Z,45.19
2022-08-18T19:17:41.920Z,44.79
2022-08-18T19:20:17.257Z,45.06
2022-08-18T19:23:04.403Z,45.27
2022-08-18T19:25:36.077Z,45.10
2022-08-18T19:28:14.881Z,45.17
2022-08-18T19:30:48.284Z,45.11
2022-08-18T19:33:26.078Z,45.63
2022-08-18T19:36:18.658Z,45.38
2022-08-18T19:38:55.530Z,45.72
2022-08-18T19:41:55.513Z,45.57
2022-08-18T19:45:13.056Z,45.69
2022-08-18T19:47:51.831Z,45.28
2022-08-18T19:50:21.829Z,45.66
2022-08-18T19:53:15.907Z,45.90
2022-08-18T19:56:04.613Z,45.65
2022-08-18T19:59:15.763Z,46.01
2022-08-18T20:02:00.972Z,46.18
2022-08-18T20:04:59.571Z,45.98
2022-08-18T20:07:55.683Z,46.23
2022-08-18T20:10:35.174Z,46.80
2022-08-18T20:13:27.864Z,46.67
2022-08-18T20:16:13.125Z,46.89
2022-08-18T20:18:50.266Z,46.96
2022-08-18T20:21:18.206Z,47.03
2022-08-18T20:24:26.126Z,47.48
2022-08-18T20:26:53.561Z,47.03
2022-08-18T20:29:43.438Z,48.20
2022-08-18T20:32:31.531Z,47.86
2022-08-18T20:35:32.925Z,47.92
2022-08-18T20:38:27.004Z,47.95
2022-08-18T20:40:55.505Z,48.41
2022-08-18T20:43:27.742Z,48.57
2022-08-18T20:46:25.131Z,48.35
2022-08-18T20:49:10.109Z,48.59
2022-08-18T20:52:15.073Z,48.66
2022-08-18T20:55:00.716Z,48.81
2022-08-18T20:57:38.988Z,49.25
2022-08-18T21:00:27.153Z,49.12
2022-08-18T21:03:00.412Z,49.66
2022-08-18T21:05:35.488Z,49.24
2022-08-18T21:08:16.273Z,49.87
2022-08-18T21:11:21.423Z,49.46
2022-08-18T21:14:04.027Z,49.66
2022-08-18T21:16:40.621Z,49.90
2022-08-18T21:19:28.968Z,49.91
2022-08-18T21:22:01.285Z,50.08
2022-08-18T21:24:42.470Z,50.29
2022-08-18T21:27:26.473Z,49.99
2022-08-18T21:30:04.441Z,50.19
2022-08-18T21:32:37.101Z,50.60
2022-08-18T21:35:28.632Z,50.25
2022-08-18T21:38:11.085Z,50.81
2022-08-18T21:40:57.132Z,50.57
2022-08-18T21:43:49.143Z,50.65
2022-08-18T21:46:29.927Z,50.82
2022-08-18T21:49:01.754Z,51.13
2022-08-18T21:51:43.164Z,50.89
2022-08-18T21:54:10.681Z,51.00
2022-08-18T21:56:38.096Z,50.86
2022-08-18T21:59:09.683Z,51.24
2022-08-18T22:01:48.117Z,51.21
2022-08-18T22:04:24.281Z,51.17
2022-08-18T22:06:59.085Z,52.02
2022-08-18T22:09:49.696Z,51.90
2022-08-18T22:12:42.786Z,51.47
2022-08-18T22:15:28.002Z,51.51
2022-08-18T22:18:03.069Z,52.24
2022-08-18T22:20:45.267Z,52.16
2022-08-18T22:23:30.485Z,52.61
2022-08-18T22:26:16.492Z,52.40
2022-08-18T22:29:34.155Z,52.79
2022-08-18T22:32:03.615Z,52.53
2022-08-18T22:34:34.263Z,52.81
2022-08-18T22:37:18.313Z,53.32
2022-08-18T22:40:00.913Z,52.75
2022-08-18T22:42:34.501Z,53.21
2022-08-18T22:45:07.118Z,53.20
2022-08-18T22:47:43.128Z,52.75
2022-08-18T22:50:13.870Z,53.28
2022-08-18T22:52:48.275Z,53.14
2022-08-18T22:55:22.080Z,52.66
2022-08-18T22:57:54.767Z,52.51
2022-08-18T23:00:23.989Z,53.17
2022-08-18T23:05:20.396Z,53.12
2022-08-18T23:07:47.704Z,52.97
2022-08-18T23:10:16.588Z,52.93
2022-08-18T23:12:45.061Z,53.30
2022-08-18T23:15:12.781Z,53.68
2022-08-18T23:17:41.648Z,53.18
2022-08-18T23:20:17.851Z,54.10
2022-08-18T23:22:48.169Z,53.57
2022-08-18T23:25:16.045Z,53.70
2022-08-18T23:27:43.288Z,54.06
2022-08-18T23:30:12.548Z,54.14
2022-08-18T23:32:39.865Z,54.23
2022-08-18T23:35:07.168Z,54.21
2022-08-18T23:37:34.162Z,53.86
2022-08-18T23:40:01.436Z,53.94
2022-08-18T23:42:28.483Z,53.99
2022-08-18T23:45:04.035Z,53.65
2022-08-18T23:47:31.356Z,53.88
2022-08-18T23:49:58.593Z,53.87
2022-08-18T23:52:25.778Z,53.83
2022-08-18T23:54:52.723Z,53.95
2022-08-18T23:57:20.021Z,54.09
2022-08-18T23:59:47.089Z,53.83
